Maxwell Air Force Base
KMXF : now visible

Airfield :











YOU CAN JOIN US ON...

 
LOGIN :

Register | Disclaimer

   EN    FR    IT 

 









Legend :    VFR   Marginal VFR   IFR   Intensive IFR   Very Intensive IFR
Visi :
Ceiling :
>= 8 km
>= 3000ft
5 to 8 km
1000 to 3000 ft
1500m to 5 km
500 to 1000 ft
800 to 1500m
200 to 500 ft
< 800m
< 200 ft
Symbols :   Thunderstorms  Fog  Heavy snow  Heavy precipitations  Wind > 20 kt






- Airport Elevation : 171 ft


KMXF - Maxwell Air Force Base

CURRENT METAR :
  • 271926Z AUTO 31005KT 10SM SCT020 OVC033 14/08 A2996 RMK AO2 SLPNO $

EXPIRED METARs :
  • 271911Z AUTO 27004KT 10SM BKN019 OVC027 13/09 A2996 RMK AO2 CIG 019V024 SLPNO $
  • 271856Z AUTO 26004KT 10SM BKN023 OVC029 13/09 A2996 RMK AO2 CIG 023V029 SLPNO T01270086 $
  • 271811Z AUTO 23004KT 10SM SCT015 BKN024 OVC029 13/09 A2997 RMK AO2 CIG 015V027 SLPNO $
  • 271756Z AUTO 22004KT 10SM OVC014 12/08 A2998 RMK AO2 SLPNO T01200083 10120 20094 $
  • 271656Z AUTO 28005KT 10SM BKN010 OVC014 11/08 A3001 RMK AO2 CIG 008V010 BKN V OVC SLPNO T01110081 $
  • 271643Z AUTO 29003KT 10SM BKN008 OVC012 11/09 A3002 RMK AO2 SLPNO $

TAF TAF KMXF
Valid from the 27 at 12:00 until the 28 at 18:00 UTC


271200Z 2712/2818 VRB03KT 6000 BR OVC007 QNH2995INS
BECMG 2716/2717 32006KT 9999 NSW SCT008 BKN015 QNH2993INS
BECMG 2720/2721 33008KT 9999 SCT050 QNH2990INS
BECMG 2811/2812 00000KT 9999 SCT003 QNH3002INS
TEMPO 2812/2814 1600 BR OVC003 TX14/2718Z TN04/2812Z



MET'MAP, your aeronautical weather chart ! - Copyright ORBIFLY December 2007 - Disclaimer

ORBIFLY MET'MAP TEAM :

Programming & Development : Alexandra Zaïnal
Concept & original design : Baudouin d'Aumeries
Assistance for programming : Marc-Olivier Méhu
Technical & hardware support : Manuel Goepfert

Contact : metmap@orbifly.com




SOURCES & CREDITS :

   NOAA       Earth
Advisory